sensor_id;sensor_type;location;lat;lon;timestamp;temperature;humidity
52181;DHT22;38158;53.338;6.514;2022-07-29T00:01:42;13.40;99.90
52181;DHT22;38158;53.338;6.514;2022-07-29T00:04:08;13.40;99.90
52181;DHT22;38158;53.338;6.514;2022-07-29T00:06:34;13.50;99.90
52181;DHT22;38158;53.338;6.514;2022-07-29T00:08:59;13.50;99.90
52181;DHT22;38158;53.338;6.514;2022-07-29T00:11:25;13.50;99.90
52181;DHT22;38158;53.338;6.514;2022-07-29T00:13:51;13.60;99.90
52181;DHT22;38158;53.338;6.514;2022-07-29T00:16:17;13.70;99.90
52181;DHT22;38158;53.338;6.514;2022-07-29T00:18:42;13.70;99.90
52181;DHT22;38158;53.338;6.514;2022-07-29T00:21:08;13.70;99.90
52181;DHT22;38158;53.338;6.514;2022-07-29T00:23:34;13.70;99.90
52181;DHT22;38158;53.338;6.514;2022-07-29T00:25:59;13.70;99.90
52181;DHT22;38158;53.338;6.514;2022-07-29T00:28:25;13.70;99.90
52181;DHT22;38158;53.338;6.514;2022-07-29T00:30:50;13.70;99.90
52181;DHT22;38158;53.338;6.514;2022-07-29T00:33:16;13.70;99.90
52181;DHT22;38158;53.338;6.514;2022-07-29T00:35:43;13.70;99.90
52181;DHT22;38158;53.338;6.514;2022-07-29T00:38:10;13.70;99.90
52181;DHT22;38158;53.338;6.514;2022-07-29T00:40:35;13.70;99.90
52181;DHT22;38158;53.338;6.514;2022-07-29T00:43:01;13.80;99.90
52181;DHT22;38158;53.338;6.514;2022-07-29T00:45:27;13.80;99.90
52181;DHT22;38158;53.338;6.514;2022-07-29T00:47:53;13.80;99.90
52181;DHT22;38158;53.338;6.514;2022-07-29T00:50:19;13.90;99.90
52181;DHT22;38158;53.338;6.514;2022-07-29T00:52:44;14.00;99.90
52181;DHT22;38158;53.338;6.514;2022-07-29T00:55:12;14.00;99.90
52181;DHT22;38158;53.338;6.514;2022-07-29T00:57:39;14.00;99.90
52181;DHT22;38158;53.338;6.514;2022-07-29T01:00:07;14.00;99.90
52181;DHT22;38158;53.338;6.514;2022-07-29T01:02:33;14.10;99.90
52181;DHT22;38158;53.338;6.514;2022-07-29T01:04:59;14.10;99.90
52181;DHT22;38158;53.338;6.514;2022-07-29T01:07:26;14.20;99.90
52181;DHT22;38158;53.338;6.514;2022-07-29T01:09:53;14.20;99.90
52181;DHT22;38158;53.338;6.514;2022-07-29T01:12:24;14.20;99.90
52181;DHT22;38158;53.338;6.514;2022-07-29T01:14:51;14.20;99.90
52181;DHT22;38158;53.338;6.514;2022-07-29T01:17:20;14.20;99.90
52181;DHT22;38158;53.338;6.514;2022-07-29T01:30:59;14.40;99.90
52181;DHT22;38158;53.338;6.514;2022-07-29T01:33:27;14.40;99.90
52181;DHT22;38158;53.338;6.514;2022-07-29T01:36:14;14.40;99.90
52181;DHT22;38158;53.338;6.514;2022-07-29T01:38:42;14.50;99.90
52181;DHT22;38158;53.338;6.514;2022-07-29T01:41:14;14.50;99.90
52181;DHT22;38158;53.338;6.514;2022-07-29T01:46:21;14.50;99.90
52181;DHT22;38158;53.338;6.514;2022-07-29T01:48:54;14.50;99.90
52181;DHT22;38158;53.338;6.514;2022-07-29T01:51:29;14.60;99.90
52181;DHT22;38158;53.338;6.514;2022-07-29T01:54:34;14.60;99.90
52181;DHT22;38158;53.338;6.514;2022-07-29T01:57:01;14.60;99.90
52181;DHT22;38158;53.338;6.514;2022-07-29T01:59:30;14.60;99.90
52181;DHT22;38158;53.338;6.514;2022-07-29T02:01:57;14.60;99.90
52181;DHT22;38158;53.338;6.514;2022-07-29T02:04:24;14.60;99.90
52181;DHT22;38158;53.338;6.514;2022-07-29T02:06:52;14.60;99.90
52181;DHT22;38158;53.338;6.514;2022-07-29T02:09:21;14.60;99.90
52181;DHT22;38158;53.338;6.514;2022-07-29T02:11:53;14.60;99.90
52181;DHT22;38158;53.338;6.514;2022-07-29T02:14:22;14.60;99.90
52181;DHT22;38158;53.338;6.514;2022-07-29T02:16:51;14.60;99.90
52181;DHT22;38158;53.338;6.514;2022-07-29T02:19:19;14.60;99.90
52181;DHT22;38158;53.338;6.514;2022-07-29T02:21:46;14.60;99.90
52181;DHT22;38158;53.338;6.514;2022-07-29T02:24:14;14.50;99.90
52181;DHT22;38158;53.338;6.514;2022-07-29T02:26:43;14.50;99.90
52181;DHT22;38158;53.338;6.514;2022-07-29T02:29:10;14.50;99.90
52181;DHT22;38158;53.338;6.514;2022-07-29T02:31:38;14.50;99.90
52181;DHT22;38158;53.338;6.514;2022-07-29T02:34:06;14.50;99.90
52181;DHT22;38158;53.338;6.514;2022-07-29T02:36:33;14.60;99.90
52181;DHT22;38158;53.338;6.514;2022-07-29T02:39:00;14.50;99.90
52181;DHT22;38158;53.338;6.514;2022-07-29T02:44:06;14.50;99.90
52181;DHT22;38158;53.338;6.514;2022-07-29T02:46:34;14.50;99.90
52181;DHT22;38158;53.338;6.514;2022-07-29T02:51:37;14.50;99.90
52181;DHT22;38158;53.338;6.514;2022-07-29T02:54:06;14.60;99.90
52181;DHT22;38158;53.338;6.514;2022-07-29T02:56:33;14.60;99.90
52181;DHT22;38158;53.338;6.514;2022-07-29T02:59:01;14.60;99.90
52181;DHT22;38158;53.338;6.514;2022-07-29T03:01:31;14.60;99.90
52181;DHT22;38158;53.338;6.514;2022-07-29T03:04:00;14.50;99.90
52181;DHT22;38158;53.338;6.514;2022-07-29T03:06:27;14.60;99.90
52181;DHT22;38158;53.338;6.514;2022-07-29T03:08:55;14.60;99.90
52181;DHT22;38158;53.338;6.514;2022-07-29T03:11:21;14.60;99.90
52181;DHT22;38158;53.338;6.514;2022-07-29T03:13:47;14.60;99.90
52181;DHT22;38158;53.338;6.514;2022-07-29T03:16:14;14.60;99.90
52181;DHT22;38158;53.338;6.514;2022-07-29T03:18:41;14.60;99.90
52181;DHT22;38158;53.338;6.514;2022-07-29T03:21:08;14.50;99.90
52181;DHT22;38158;53.338;6.514;2022-07-29T03:23:33;14.50;99.90
52181;DHT22;38158;53.338;6.514;2022-07-29T03:25:59;14.50;99.90
52181;DHT22;38158;53.338;6.514;2022-07-29T03:28:25;14.50;99.90
52181;DHT22;38158;53.338;6.514;2022-07-29T03:30:53;14.40;99.90
52181;DHT22;38158;53.338;6.514;2022-07-29T03:33:19;14.40;99.90
52181;DHT22;38158;53.338;6.514;2022-07-29T03:35:45;14.40;99.90
52181;DHT22;38158;53.338;6.514;2022-07-29T03:38:10;14.40;99.90
52181;DHT22;38158;53.338;6.514;2022-07-29T03:40:53;14.30;99.90
52181;DHT22;38158;53.338;6.514;2022-07-29T03:43:20;14.30;99.90
52181;DHT22;38158;53.338;6.514;2022-07-29T03:45:52;14.30;99.90
52181;DHT22;38158;53.338;6.514;2022-07-29T03:48:21;14.30;99.90
52181;DHT22;38158;53.338;6.514;2022-07-29T03:50:48;14.20;99.90
52181;DHT22;38158;53.338;6.514;2022-07-29T03:53:15;14.20;99.90
52181;DHT22;38158;53.338;6.514;2022-07-29T03:55:45;14.30;99.90
52181;DHT22;38158;53.338;6.514;2022-07-29T03:58:13;14.20;99.90
52181;DHT22;38158;53.338;6.514;2022-07-29T04:00:40;14.30;99.90
52181;DHT22;38158;53.338;6.514;2022-07-29T04:03:07;14.30;99.90
52181;DHT22;38158;53.338;6.514;2022-07-29T04:05:33;14.20;99.90
52181;DHT22;38158;53.338;6.514;2022-07-29T04:07:59;14.30;99.90
52181;DHT22;38158;53.338;6.514;2022-07-29T04:10:25;14.30;99.90
52181;DHT22;38158;53.338;6.514;2022-07-29T04:12:51;14.30;99.90
52181;DHT22;38158;53.338;6.514;2022-07-29T04:15:16;14.50;99.90
52181;DHT22;38158;53.338;6.514;2022-07-29T04:17:42;14.40;99.90
52181;DHT22;38158;53.338;6.514;2022-07-29T04:20:08;14.40;99.90
52181;DHT22;38158;53.338;6.514;2022-07-29T04:22:34;14.50;99.90
52181;DHT22;38158;53.338;6.514;2022-07-29T04:25:00;14.50;99.90
52181;DHT22;38158;53.338;6.514;2022-07-29T04:27:26;14.60;99.90
52181;DHT22;38158;53.338;6.514;2022-07-29T04:29:51;14.60;99.90
52181;DHT22;38158;53.338;6.514;2022-07-29T04:32:17;14.60;99.90
52181;DHT22;38158;53.338;6.514;2022-07-29T04:34:43;14.70;99.90
52181;DHT22;38158;53.338;6.514;2022-07-29T04:37:08;14.70;99.90
52181;DHT22;38158;53.338;6.514;2022-07-29T04:39:34;14.70;99.90
52181;DHT22;38158;53.338;6.514;2022-07-29T04:41:59;14.80;99.90
52181;DHT22;38158;53.338;6.514;2022-07-29T04:44:25;14.80;99.90
52181;DHT22;38158;53.338;6.514;2022-07-29T04:46:52;14.80;99.90
52181;DHT22;38158;53.338;6.514;2022-07-29T04:49:17;14.90;99.90
52181;DHT22;38158;53.338;6.514;2022-07-29T04:51:43;14.90;99.90
52181;DHT22;38158;53.338;6.514;2022-07-29T04:54:09;14.90;99.90
52181;DHT22;38158;53.338;6.514;2022-07-29T04:56:34;15.00;99.90
52181;DHT22;38158;53.338;6.514;2022-07-29T04:59:00;15.00;99.90
52181;DHT22;38158;53.338;6.514;2022-07-29T05:01:26;15.00;99.90
52181;DHT22;38158;53.338;6.514;2022-07-29T05:03:51;15.00;99.90
52181;DHT22;38158;53.338;6.514;2022-07-29T05:06:17;15.10;99.90
52181;DHT22;38158;53.338;6.514;2022-07-29T05:08:42;15.10;99.90
52181;DHT22;38158;53.338;6.514;2022-07-29T05:11:08;15.10;99.90
52181;DHT22;38158;53.338;6.514;2022-07-29T05:13:34;15.10;99.90
52181;DHT22;38158;53.338;6.514;2022-07-29T05:15:59;15.20;99.90
52181;DHT22;38158;53.338;6.514;2022-07-29T05:18:25;15.20;99.90
52181;DHT22;38158;53.338;6.514;2022-07-29T05:20:51;15.20;99.90
52181;DHT22;38158;53.338;6.514;2022-07-29T05:23:17;15.20;99.90
52181;DHT22;38158;53.338;6.514;2022-07-29T05:25:43;15.20;99.90
52181;DHT22;38158;53.338;6.514;2022-07-29T05:28:09;15.30;99.90
52181;DHT22;38158;53.338;6.514;2022-07-29T05:30:34;15.30;99.90
52181;DHT22;38158;53.338;6.514;2022-07-29T05:33:00;15.30;99.90
52181;DHT22;38158;53.338;6.514;2022-07-29T05:35:26;15.40;99.90
52181;DHT22;38158;53.338;6.514;2022-07-29T05:37:52;15.40;99.90
52181;DHT22;38158;53.338;6.514;2022-07-29T05:40:17;15.40;99.90
52181;DHT22;38158;53.338;6.514;2022-07-29T05:42:43;15.40;99.90
52181;DHT22;38158;53.338;6.514;2022-07-29T05:45:09;15.50;99.90
52181;DHT22;38158;53.338;6.514;2022-07-29T05:47:35;15.50;99.90
52181;DHT22;38158;53.338;6.514;2022-07-29T05:50:00;15.50;99.90
52181;DHT22;38158;53.338;6.514;2022-07-29T05:52:26;15.60;99.90
52181;DHT22;38158;53.338;6.514;2022-07-29T05:54:52;15.60;99.90
52181;DHT22;38158;53.338;6.514;2022-07-29T05:57:23;15.70;99.90
52181;DHT22;38158;53.338;6.514;2022-07-29T05:59:50;15.70;99.90
52181;DHT22;38158;53.338;6.514;2022-07-29T06:02:16;15.70;99.90
52181;DHT22;38158;53.338;6.514;2022-07-29T06:04:42;15.80;99.90
52181;DHT22;38158;53.338;6.514;2022-07-29T06:07:08;15.80;99.90
52181;DHT22;38158;53.338;6.514;2022-07-29T06:09:34;15.90;99.90
52181;DHT22;38158;53.338;6.514;2022-07-29T06:12:00;15.90;99.90
52181;DHT22;38158;53.338;6.514;2022-07-29T06:14:26;15.90;99.90
52181;DHT22;38158;53.338;6.514;2022-07-29T06:16:54;16.00;99.90
52181;DHT22;38158;53.338;6.514;2022-07-29T06:19:20;16.00;99.90
52181;DHT22;38158;53.338;6.514;2022-07-29T06:21:46;16.10;99.90
52181;DHT22;38158;53.338;6.514;2022-07-29T06:24:12;16.20;99.90
52181;DHT22;38158;53.338;6.514;2022-07-29T06:26:39;16.20;99.90
52181;DHT22;38158;53.338;6.514;2022-07-29T06:29:06;16.30;99.90
52181;DHT22;38158;53.338;6.514;2022-07-29T06:31:31;16.30;99.90
52181;DHT22;38158;53.338;6.514;2022-07-29T06:33:57;16.30;99.90
52181;DHT22;38158;53.338;6.514;2022-07-29T06:36:23;16.40;99.90
52181;DHT22;38158;53.338;6.514;2022-07-29T06:38:48;16.50;99.90
52181;DHT22;38158;53.338;6.514;2022-07-29T06:41:14;16.50;99.90
52181;DHT22;38158;53.338;6.514;2022-07-29T06:43:43;16.60;99.90
52181;DHT22;38158;53.338;6.514;2022-07-29T06:46:14;16.60;99.90
52181;DHT22;38158;53.338;6.514;2022-07-29T06:48:41;16.70;99.90
52181;DHT22;38158;53.338;6.514;2022-07-29T06:51:07;16.70;99.90
52181;DHT22;38158;53.338;6.514;2022-07-29T06:53:33;16.70;99.90
52181;DHT22;38158;53.338;6.514;2022-07-29T06:56:00;16.80;99.90
52181;DHT22;38158;53.338;6.514;2022-07-29T06:58:27;16.80;99.90
52181;DHT22;38158;53.338;6.514;2022-07-29T07:00:53;16.90;99.90
52181;DHT22;38158;53.338;6.514;2022-07-29T07:03:19;17.00;99.90
52181;DHT22;38158;53.338;6.514;2022-07-29T07:05:45;17.10;99.90
52181;DHT22;38158;53.338;6.514;2022-07-29T07:08:11;17.10;99.90
52181;DHT22;38158;53.338;6.514;2022-07-29T07:10:37;17.20;99.90
52181;DHT22;38158;53.338;6.514;2022-07-29T07:13:04;17.20;99.90
52181;DHT22;38158;53.338;6.514;2022-07-29T07:15:30;17.30;99.90
52181;DHT22;38158;53.338;6.514;2022-07-29T07:17:56;17.30;99.90
52181;DHT22;38158;53.338;6.514;2022-07-29T07:20:24;17.40;99.90
52181;DHT22;38158;53.338;6.514;2022-07-29T07:22:50;17.40;99.90
52181;DHT22;38158;53.338;6.514;2022-07-29T07:25:16;17.50;99.90
52181;DHT22;38158;53.338;6.514;2022-07-29T07:27:44;17.60;99.90
52181;DHT22;38158;53.338;6.514;2022-07-29T07:30:10;17.60;99.90
52181;DHT22;38158;53.338;6.514;2022-07-29T07:32:36;17.60;99.80
52181;DHT22;38158;53.338;6.514;2022-07-29T07:35:03;17.70;99.80
52181;DHT22;38158;53.338;6.514;2022-07-29T07:37:29;17.80;99.10
52181;DHT22;38158;53.338;6.514;2022-07-29T07:39:55;17.70;99.00
52181;DHT22;38158;53.338;6.514;2022-07-29T07:42:20;17.80;98.80
52181;DHT22;38158;53.338;6.514;2022-07-29T07:44:46;17.80;98.60
52181;DHT22;38158;53.338;6.514;2022-07-29T07:47:14;17.80;98.50
52181;DHT22;38158;53.338;6.514;2022-07-29T07:49:41;17.90;98.40
52181;DHT22;38158;53.338;6.514;2022-07-29T07:52:07;17.90;98.60
52181;DHT22;38158;53.338;6.514;2022-07-29T07:54:32;17.90;98.00
52181;DHT22;38158;53.338;6.514;2022-07-29T07:56:58;18.00;98.00
52181;DHT22;38158;53.338;6.514;2022-07-29T07:59:24;18.00;98.00
52181;DHT22;38158;53.338;6.514;2022-07-29T08:01:50;18.00;97.90
52181;DHT22;38158;53.338;6.514;2022-07-29T08:04:16;18.10;97.90
52181;DHT22;38158;53.338;6.514;2022-07-29T08:06:41;18.10;97.90
52181;DHT22;38158;53.338;6.514;2022-07-29T08:09:08;18.10;97.80
52181;DHT22;38158;53.338;6.514;2022-07-29T08:11:33;18.20;97.60
52181;DHT22;38158;53.338;6.514;2022-07-29T08:13:59;18.20;97.50
52181;DHT22;38158;53.338;6.514;2022-07-29T08:16:27;18.30;97.70
52181;DHT22;38158;53.338;6.514;2022-07-29T08:18:53;18.40;97.70
52181;DHT22;38158;53.338;6.514;2022-07-29T08:21:23;18.30;97.40
52181;DHT22;38158;53.338;6.514;2022-07-29T08:23:49;18.40;97.10
52181;DHT22;38158;53.338;6.514;2022-07-29T08:26:18;18.40;97.00
52181;DHT22;38158;53.338;6.514;2022-07-29T08:28:44;18.40;96.90
52181;DHT22;38158;53.338;6.514;2022-07-29T08:31:11;18.40;96.90
52181;DHT22;38158;53.338;6.514;2022-07-29T08:33:38;18.40;96.90
52181;DHT22;38158;53.338;6.514;2022-07-29T08:36:05;18.40;96.90
52181;DHT22;38158;53.338;6.514;2022-07-29T08:38:31;18.40;96.80
52181;DHT22;38158;53.338;6.514;2022-07-29T08:40:56;18.50;96.60
52181;DHT22;38158;53.338;6.514;2022-07-29T08:43:23;18.60;96.60
52181;DHT22;38158;53.338;6.514;2022-07-29T08:45:50;18.70;96.20
52181;DHT22;38158;53.338;6.514;2022-07-29T08:48:20;18.70;95.80
52181;DHT22;38158;53.338;6.514;2022-07-29T08:50:47;18.80;93.60
52181;DHT22;38158;53.338;6.514;2022-07-29T08:53:14;18.80;95.40
52181;DHT22;38158;53.338;6.514;2022-07-29T08:55:47;18.80;93.10
52181;DHT22;38158;53.338;6.514;2022-07-29T08:58:13;18.80;94.80
52181;DHT22;38158;53.338;6.514;2022-07-29T09:00:50;18.80;94.50
52181;DHT22;38158;53.338;6.514;2022-07-29T09:03:18;18.80;93.80
52181;DHT22;38158;53.338;6.514;2022-07-29T09:05:48;18.80;94.10
52181;DHT22;38158;53.338;6.514;2022-07-29T09:08:15;18.80;94.00
52181;DHT22;38158;53.338;6.514;2022-07-29T09:10:41;18.80;93.80
52181;DHT22;38158;53.338;6.514;2022-07-29T09:13:07;18.90;94.10
52181;DHT22;38158;53.338;6.514;2022-07-29T09:15:33;18.90;93.90
52181;DHT22;38158;53.338;6.514;2022-07-29T09:17:59;19.00;94.00
52181;DHT22;38158;53.338;6.514;2022-07-29T09:20:25;19.00;94.00
52181;DHT22;38158;53.338;6.514;2022-07-29T09:22:52;18.90;93.90
52181;DHT22;38158;53.338;6.514;2022-07-29T09:25:37;18.90;93.70
52181;DHT22;38158;53.338;6.514;2022-07-29T09:28:12;19.00;94.00
52181;DHT22;38158;53.338;6.514;2022-07-29T09:30:55;19.00;94.00
52181;DHT22;38158;53.338;6.514;2022-07-29T09:33:21;19.10;93.40
52181;DHT22;38158;53.338;6.514;2022-07-29T09:36:02;19.20;93.60
52181;DHT22;38158;53.338;6.514;2022-07-29T09:38:28;19.20;92.60
52181;DHT22;38158;53.338;6.514;2022-07-29T09:40:58;19.20;93.40
52181;DHT22;38158;53.338;6.514;2022-07-29T09:43:24;19.20;92.80
52181;DHT22;38158;53.338;6.514;2022-07-29T09:45:50;19.20;93.00
52181;DHT22;38158;53.338;6.514;2022-07-29T09:48:24;19.20;93.30
52181;DHT22;38158;53.338;6.514;2022-07-29T09:50:50;19.30;93.20
52181;DHT22;38158;53.338;6.514;2022-07-29T09:55:56;19.40;92.90
52181;DHT22;38158;53.338;6.514;2022-07-29T09:58:22;19.40;93.30
52181;DHT22;38158;53.338;6.514;2022-07-29T10:00:50;19.50;93.30
52181;DHT22;38158;53.338;6.514;2022-07-29T10:03:16;19.60;93.10
52181;DHT22;38158;53.338;6.514;2022-07-29T10:05:43;19.60;92.80
52181;DHT22;38158;53.338;6.514;2022-07-29T10:08:11;19.50;92.60
52181;DHT22;38158;53.338;6.514;2022-07-29T10:10:43;19.60;92.90
52181;DHT22;38158;53.338;6.514;2022-07-29T10:13:12;19.60;92.80
52181;DHT22;38158;53.338;6.514;2022-07-29T10:15:40;19.70;93.00
52181;DHT22;38158;53.338;6.514;2022-07-29T10:18:08;19.80;92.60
52181;DHT22;38158;53.338;6.514;2022-07-29T10:20:34;19.80;92.30
52181;DHT22;38158;53.338;6.514;2022-07-29T10:23:00;19.80;92.20
52181;DHT22;38158;53.338;6.514;2022-07-29T10:25:26;19.80;92.20
52181;DHT22;38158;53.338;6.514;2022-07-29T10:27:52;19.80;92.40
52181;DHT22;38158;53.338;6.514;2022-07-29T10:30:21;19.80;92.00
52181;DHT22;38158;53.338;6.514;2022-07-29T10:46:24;19.60;93.10
52181;DHT22;38158;53.338;6.514;2022-07-29T10:49:33;19.70;93.10
52181;DHT22;38158;53.338;6.514;2022-07-29T10:59:41;19.80;93.00
52181;DHT22;38158;53.338;6.514;2022-07-29T11:07:25;19.90;92.90
52181;DHT22;38158;53.338;6.514;2022-07-29T11:15:08;20.00;93.10
52181;DHT22;38158;53.338;6.514;2022-07-29T11:31:34;20.10;93.10
52181;DHT22;38158;53.338;6.514;2022-07-29T11:34:32;20.10;92.90
52181;DHT22;38158;53.338;6.514;2022-07-29T11:39:34;20.10;93.20
52181;DHT22;38158;53.338;6.514;2022-07-29T11:47:36;20.30;93.10
52181;DHT22;38158;53.338;6.514;2022-07-29T11:50:08;20.30;93.10
52181;DHT22;38158;53.338;6.514;2022-07-29T11:52:39;20.40;93.50
52181;DHT22;38158;53.338;6.514;2022-07-29T11:55:13;20.50;93.30
52181;DHT22;38158;53.338;6.514;2022-07-29T11:57:47;20.50;93.40
52181;DHT22;38158;53.338;6.514;2022-07-29T12:02:54;20.60;93.00
52181;DHT22;38158;53.338;6.514;2022-07-29T12:05:21;20.60;93.10
52181;DHT22;38158;53.338;6.514;2022-07-29T12:07:47;20.70;93.30
52181;DHT22;38158;53.338;6.514;2022-07-29T12:10:14;20.70;93.00
52181;DHT22;38158;53.338;6.514;2022-07-29T12:12:39;20.70;93.00
52181;DHT22;38158;53.338;6.514;2022-07-29T12:15:13;20.80;93.10
52181;DHT22;38158;53.338;6.514;2022-07-29T12:17:39;20.90;93.50
52181;DHT22;38158;53.338;6.514;2022-07-29T12:20:05;21.00;92.80
52181;DHT22;38158;53.338;6.514;2022-07-29T12:22:39;21.10;92.60
52181;DHT22;38158;53.338;6.514;2022-07-29T12:25:08;21.20;92.60
52181;DHT22;38158;53.338;6.514;2022-07-29T12:27:35;21.40;92.70
52181;DHT22;38158;53.338;6.514;2022-07-29T12:30:05;21.50;92.00
52181;DHT22;38158;53.338;6.514;2022-07-29T12:32:50;21.60;91.50
52181;DHT22;38158;53.338;6.514;2022-07-29T12:35:17;21.60;91.40
52181;DHT22;38158;53.338;6.514;2022-07-29T12:37:46;21.80;91.20
52181;DHT22;38158;53.338;6.514;2022-07-29T12:40:16;22.10;90.50
52181;DHT22;38158;53.338;6.514;2022-07-29T12:45:40;22.80;84.60
52181;DHT22;38158;53.338;6.514;2022-07-29T12:48:07;23.20;85.30
52181;DHT22;38158;53.338;6.514;2022-07-29T12:50:51;23.40;85.40
52181;DHT22;38158;53.338;6.514;2022-07-29T12:53:18;23.70;82.70
52181;DHT22;38158;53.338;6.514;2022-07-29T12:55:48;23.90;80.50
52181;DHT22;38158;53.338;6.514;2022-07-29T12:58:30;24.00;78.80
52181;DHT22;38158;53.338;6.514;2022-07-29T13:03:50;24.20;76.80
52181;DHT22;38158;53.338;6.514;2022-07-29T13:09:13;24.40;68.90
52181;DHT22;38158;53.338;6.514;2022-07-29T13:11:40;24.40;72.80
52181;DHT22;38158;53.338;6.514;2022-07-29T13:14:09;24.60;68.30
52181;DHT22;38158;53.338;6.514;2022-07-29T13:16:36;24.60;71.60
52181;DHT22;38158;53.338;6.514;2022-07-29T13:19:09;24.60;71.90
52181;DHT22;38158;53.338;6.514;2022-07-29T13:21:37;24.50;71.50
52181;DHT22;38158;53.338;6.514;2022-07-29T13:24:05;24.50;71.40
52181;DHT22;38158;53.338;6.514;2022-07-29T13:26:31;24.50;71.40
52181;DHT22;38158;53.338;6.514;2022-07-29T13:28:57;24.40;71.40
52181;DHT22;38158;53.338;6.514;2022-07-29T13:31:23;24.40;71.20
52181;DHT22;38158;53.338;6.514;2022-07-29T13:33:49;24.50;70.50
52181;DHT22;38158;53.338;6.514;2022-07-29T13:36:14;24.60;70.20
52181;DHT22;38158;53.338;6.514;2022-07-29T13:38:40;24.60;69.80
52181;DHT22;38158;53.338;6.514;2022-07-29T13:41:06;24.70;69.50
52181;DHT22;38158;53.338;6.514;2022-07-29T13:43:31;24.70;69.00
52181;DHT22;38158;53.338;6.514;2022-07-29T13:45:57;24.80;67.10
52181;DHT22;38158;53.338;6.514;2022-07-29T13:48:23;24.80;67.10
52181;DHT22;38158;53.338;6.514;2022-07-29T13:50:48;24.80;66.20
52181;DHT22;38158;53.338;6.514;2022-07-29T13:53:14;24.80;66.40
52181;DHT22;38158;53.338;6.514;2022-07-29T13:55:40;24.80;66.00
52181;DHT22;38158;53.338;6.514;2022-07-29T13:58:05;24.80;66.10
52181;DHT22;38158;53.338;6.514;2022-07-29T14:00:31;24.90;66.30
52181;DHT22;38158;53.338;6.514;2022-07-29T14:02:57;24.90;65.80
52181;DHT22;38158;53.338;6.514;2022-07-29T14:05:22;24.90;66.00
52181;DHT22;38158;53.338;6.514;2022-07-29T14:07:48;24.90;65.20
52181;DHT22;38158;53.338;6.514;2022-07-29T14:10:14;24.90;64.50
52181;DHT22;38158;53.338;6.514;2022-07-29T14:12:40;24.80;63.80
52181;DHT22;38158;53.338;6.514;2022-07-29T14:15:07;24.80;64.60
52181;DHT22;38158;53.338;6.514;2022-07-29T14:17:33;24.90;64.50
52181;DHT22;38158;53.338;6.514;2022-07-29T14:19:59;25.00;62.70
52181;DHT22;38158;53.338;6.514;2022-07-29T14:22:25;25.10;61.10
52181;DHT22;38158;53.338;6.514;2022-07-29T14:24:51;25.10;60.50
52181;DHT22;38158;53.338;6.514;2022-07-29T14:27:16;25.20;60.50
52181;DHT22;38158;53.338;6.514;2022-07-29T14:29:42;25.30;59.80
52181;DHT22;38158;53.338;6.514;2022-07-29T14:32:09;25.30;59.70
52181;DHT22;38158;53.338;6.514;2022-07-29T14:34:36;25.30;59.50
52181;DHT22;38158;53.338;6.514;2022-07-29T14:37:03;25.30;59.40
52181;DHT22;38158;53.338;6.514;2022-07-29T14:39:31;25.40;59.80
52181;DHT22;38158;53.338;6.514;2022-07-29T14:41:56;25.40;58.90
52181;DHT22;38158;53.338;6.514;2022-07-29T14:44:22;25.40;58.70
52181;DHT22;38158;53.338;6.514;2022-07-29T14:46:48;25.40;58.40
52181;DHT22;38158;53.338;6.514;2022-07-29T14:49:15;25.60;58.40
52181;DHT22;38158;53.338;6.514;2022-07-29T14:51:40;25.60;58.20
52181;DHT22;38158;53.338;6.514;2022-07-29T14:54:06;25.70;58.50
52181;DHT22;38158;53.338;6.514;2022-07-29T14:56:32;25.70;59.20
52181;DHT22;38158;53.338;6.514;2022-07-29T14:59:01;25.70;59.40
52181;DHT22;38158;53.338;6.514;2022-07-29T15:01:27;25.70;59.10
52181;DHT22;38158;53.338;6.514;2022-07-29T15:03:52;25.60;58.90
52181;DHT22;38158;53.338;6.514;2022-07-29T15:06:18;25.60;58.80
52181;DHT22;38158;53.338;6.514;2022-07-29T15:08:43;25.60;58.90
52181;DHT22;38158;53.338;6.514;2022-07-29T15:11:09;25.60;58.60
52181;DHT22;38158;53.338;6.514;2022-07-29T15:13:35;25.50;59.10
52181;DHT22;38158;53.338;6.514;2022-07-29T15:16:00;25.50;59.00
52181;DHT22;38158;53.338;6.514;2022-07-29T15:18:26;25.50;59.00
52181;DHT22;38158;53.338;6.514;2022-07-29T15:20:55;25.50;58.10
52181;DHT22;38158;53.338;6.514;2022-07-29T15:23:20;25.30;58.40
52181;DHT22;38158;53.338;6.514;2022-07-29T15:25:49;25.10;58.60
52181;DHT22;38158;53.338;6.514;2022-07-29T15:28:15;24.90;58.70
52181;DHT22;38158;53.338;6.514;2022-07-29T15:30:40;24.70;59.50
52181;DHT22;38158;53.338;6.514;2022-07-29T15:33:09;24.50;60.10
52181;DHT22;38158;53.338;6.514;2022-07-29T15:35:38;24.40;60.70
52181;DHT22;38158;53.338;6.514;2022-07-29T15:38:04;24.30;61.20
52181;DHT22;38158;53.338;6.514;2022-07-29T15:40:30;24.30;61.30
52181;DHT22;38158;53.338;6.514;2022-07-29T15:42:56;24.30;62.00
52181;DHT22;38158;53.338;6.514;2022-07-29T15:45:21;24.30;62.40
52181;DHT22;38158;53.338;6.514;2022-07-29T15:47:47;24.30;62.90
52181;DHT22;38158;53.338;6.514;2022-07-29T15:50:13;24.30;63.20
52181;DHT22;38158;53.338;6.514;2022-07-29T15:52:41;24.30;62.80
52181;DHT22;38158;53.338;6.514;2022-07-29T15:55:08;24.30;62.90
52181;DHT22;38158;53.338;6.514;2022-07-29T15:57:34;24.30;63.30
52181;DHT22;38158;53.338;6.514;2022-07-29T15:59:59;24.30;63.80
52181;DHT22;38158;53.338;6.514;2022-07-29T16:02:25;24.40;64.60
52181;DHT22;38158;53.338;6.514;2022-07-29T16:04:51;24.60;64.10
52181;DHT22;38158;53.338;6.514;2022-07-29T16:07:17;24.70;63.90
52181;DHT22;38158;53.338;6.514;2022-07-29T16:09:43;24.80;63.60
52181;DHT22;38158;53.338;6.514;2022-07-29T16:12:09;24.70;64.10
52181;DHT22;38158;53.338;6.514;2022-07-29T16:14:34;24.60;64.30
52181;DHT22;38158;53.338;6.514;2022-07-29T16:17:00;24.50;65.10
52181;DHT22;38158;53.338;6.514;2022-07-29T16:19:28;24.40;65.50
52181;DHT22;38158;53.338;6.514;2022-07-29T16:21:54;24.30;65.70
52181;DHT22;38158;53.338;6.514;2022-07-29T16:24:20;24.20;66.00
52181;DHT22;38158;53.338;6.514;2022-07-29T16:26:46;24.10;67.10
52181;DHT22;38158;53.338;6.514;2022-07-29T16:29:11;24.00;68.50
52181;DHT22;38158;53.338;6.514;2022-07-29T16:31:37;23.90;69.50
52181;DHT22;38158;53.338;6.514;2022-07-29T16:34:03;23.80;70.10
52181;DHT22;38158;53.338;6.514;2022-07-29T16:36:28;23.70;71.30
52181;DHT22;38158;53.338;6.514;2022-07-29T16:38:54;23.70;72.70
52181;DHT22;38158;53.338;6.514;2022-07-29T16:41:19;23.60;73.10
52181;DHT22;38158;53.338;6.514;2022-07-29T16:43:45;23.50;73.30
52181;DHT22;38158;53.338;6.514;2022-07-29T16:46:14;23.40;74.00
52181;DHT22;38158;53.338;6.514;2022-07-29T16:48:39;23.40;74.90
52181;DHT22;38158;53.338;6.514;2022-07-29T16:51:08;23.30;75.50
52181;DHT22;38158;53.338;6.514;2022-07-29T16:53:34;23.40;75.40
52181;DHT22;38158;53.338;6.514;2022-07-29T16:56:00;23.40;75.50
52181;DHT22;38158;53.338;6.514;2022-07-29T16:58:26;23.40;75.60